Time;durP1;ratioP1;P1;durP2;ratioP2;P2;SDS_P1;SDS_P2;PMS_P1;PMS_P2;Temp;Humidity;BMP_temperature;BMP_pressure;BME280_temperature;BME280_humidity;BME280_pressure;Samples;Min_cycle;Max_cycle;Signal;HPM_P1;HPM_P2
2024/01/10 00:02:19;;;;;;;5.80;4.47;;;;;;;;;;5071703;28;20493;-49
2024/01/10 00:04:45;;;;;;;5.40;4.43;;;;;;;;;;5071607;28;20774;-49
2024/01/10 00:07:11;;;;;;;7.67;5.00;;;;;;;;;;5071507;28;20430;-49
2024/01/10 00:09:38;;;;;;;6.73;4.80;;;;;;;;;;5071716;28;20438;-50
2024/01/10 00:12:04;;;;;;;6.80;4.80;;;;;;;;;;5071203;28;20497;-50
2024/01/10 00:14:30;;;;;;;9.10;4.67;;;;;;;;;;5071985;28;20446;-49
2024/01/10 00:16:56;;;;;;;5.20;4.30;;;;;;;;;;5071444;28;20470;-49
2024/01/10 00:19:22;;;;;;;5.83;4.60;;;;;;;;;;5071419;28;20625;-49
2024/01/10 00:21:48;;;;;;;7.10;4.90;;;;;;;;;;5071392;28;20872;-49
2024/01/10 00:24:14;;;;;;;5.53;4.90;;;;;;;;;;5071686;28;20203;-49
2024/01/10 00:26:42;;;;;;;7.67;4.93;;;;;;;;;;5071512;28;20495;-49
2024/01/10 00:29:08;;;;;;;5.40;4.37;;;;;;;;;;5071238;28;20441;-49
2024/01/10 00:31:34;;;;;;;6.03;4.53;;;;;;;;;;5071329;28;20437;-49
2024/01/10 00:34:00;;;;;;;6.70;4.63;;;;;;;;;;5071343;28;20274;-49
2024/01/10 00:36:26;;;;;;;5.73;3.90;;;;;;;;;;5074526;28;20919;-50
2024/01/10 00:38:52;;;;;;;5.97;4.50;;;;;;;;;;5075451;28;20203;-49
2024/01/10 00:41:18;;;;;;;6.80;4.70;;;;;;;;;;5075356;28;20524;-49
2024/01/10 00:43:45;;;;;;;7.17;4.60;;;;;;;;;;5075130;28;20299;-49
2024/01/10 00:46:11;;;;;;;5.63;4.03;;;;;;;;;;5075277;28;20199;-49
2024/01/10 00:48:37;;;;;;;8.47;5.30;;;;;;;;;;5075245;28;20446;-49
2024/01/10 00:51:08;;;;;;;7.97;5.67;;;;;;;;;;5075177;28;20238;-49
2024/01/10 00:53:34;;;;;;;8.23;4.80;;;;;;;;;;5075318;28;20210;-49
2024/01/10 00:56:00;;;;;;;6.43;5.00;;;;;;;;;;5075003;28;20481;-49
2024/01/10 00:58:26;;;;;;;7.33;5.07;;;;;;;;;;5073608;28;20707;-50
2024/01/10 01:00:53;;;;;;;6.80;4.67;;;;;;;;;;5073378;28;20298;-49
2024/01/10 01:03:19;;;;;;;7.73;5.70;;;;;;;;;;5075115;28;20705;-49
2024/01/10 01:05:45;;;;;;;8.43;5.60;;;;;;;;;;5075154;28;20513;-49
2024/01/10 01:08:11;;;;;;;7.50;5.57;;;;;;;;;;5074985;28;21007;-50
2024/01/10 01:10:37;;;;;;;8.00;4.80;;;;;;;;;;5074729;28;20242;-50
2024/01/10 01:13:03;;;;;;;7.07;5.20;;;;;;;;;;5074908;28;20199;-50
2024/01/10 01:15:29;;;;;;;7.13;5.13;;;;;;;;;;5074572;28;20560;-50
2024/01/10 01:17:56;;;;;;;6.00;4.87;;;;;;;;;;5074592;28;20896;-50
2024/01/10 01:20:22;;;;;;;5.93;4.80;;;;;;;;;;5074674;28;20835;-50
2024/01/10 01:22:48;;;;;;;8.00;5.47;;;;;;;;;;5074584;28;20769;-50
2024/01/10 01:25:14;;;;;;;6.60;5.13;;;;;;;;;;5074715;28;20453;-50
2024/01/10 01:27:40;;;;;;;8.73;5.53;;;;;;;;;;5074638;28;20430;-50
2024/01/10 01:30:07;;;;;;;5.90;4.67;;;;;;;;;;5074386;28;20457;-50
2024/01/10 01:32:33;;;;;;;7.97;5.50;;;;;;;;;;5074504;28;20203;-50
2024/01/10 01:35:00;;;;;;;6.07;4.97;;;;;;;;;;5074360;28;20453;-49
2024/01/10 01:37:26;;;;;;;5.63;4.87;;;;;;;;;;5074570;28;20210;-50
2024/01/10 01:39:52;;;;;;;8.67;5.20;;;;;;;;;;5074417;28;20438;-49
2024/01/10 01:42:18;;;;;;;6.93;5.07;;;;;;;;;;5074415;28;20557;-50
2024/01/10 01:44:44;;;;;;;6.27;4.87;;;;;;;;;;5074334;28;20308;-50
2024/01/10 01:47:10;;;;;;;7.27;4.80;;;;;;;;;;5073296;28;20521;-50
2024/01/10 01:49:36;;;;;;;6.47;4.87;;;;;;;;;;5074192;28;20195;-50
2024/01/10 01:52:05;;;;;;;7.63;5.10;;;;;;;;;;5074010;28;20641;-49
2024/01/10 01:54:31;;;;;;;7.40;5.13;;;;;;;;;;5074241;28;20453;-50
2024/01/10 01:56:57;;;;;;;7.47;5.40;;;;;;;;;;5073956;28;20531;-50
2024/01/10 01:59:23;;;;;;;7.07;4.80;;;;;;;;;;5073895;28;20437;-50
2024/01/10 02:01:50;;;;;;;7.23;5.30;;;;;;;;;;5073777;28;20438;-50
2024/01/10 02:04:16;;;;;;;6.17;5.33;;;;;;;;;;5074058;28;20892;-50
2024/01/10 02:06:42;;;;;;;7.13;4.80;;;;;;;;;;5073842;28;20928;-49
2024/01/10 02:09:09;;;;;;;6.90;5.47;;;;;;;;;;5073622;28;20474;-50
2024/01/10 02:11:36;;;;;;;6.33;4.57;;;;;;;;;;5073593;28;20609;-49
2024/01/10 02:14:02;;;;;;;6.53;5.27;;;;;;;;;;5073716;28;20437;-50
2024/01/10 02:16:28;;;;;;;8.20;5.20;;;;;;;;;;5073650;28;20484;-50
2024/01/10 02:18:54;;;;;;;7.97;5.37;;;;;;;;;;5073603;28;20461;-50
2024/01/10 02:21:21;;;;;;;7.83;4.83;;;;;;;;;;5073771;28;20469;-49
2024/01/10 02:23:47;;;;;;;5.83;4.97;;;;;;;;;;5073650;28;20215;-50
2024/01/10 02:26:15;;;;;;;6.37;5.30;;;;;;;;;;5073690;28;20517;-50
2024/01/10 02:28:41;;;;;;;8.83;6.23;;;;;;;;;;5073524;28;20457;-50
2024/01/10 02:31:07;;;;;;;8.37;5.00;;;;;;;;;;5073282;28;20446;-50
2024/01/10 02:33:33;;;;;;;6.97;4.80;;;;;;;;;;5073366;28;20593;-50
2024/01/10 02:35:59;;;;;;;7.93;5.30;;;;;;;;;;5073330;28;20485;-50
2024/01/10 02:38:26;;;;;;;7.80;5.63;;;;;;;;;;5073393;28;20484;-50
2024/01/10 02:40:53;;;;;;;7.93;5.77;;;;;;;;;;5073174;28;20223;-50
2024/01/10 02:43:20;;;;;;;8.00;6.07;;;;;;;;;;5073276;28;20438;-49
2024/01/10 02:45:46;;;;;;;7.10;5.73;;;;;;;;;;5073057;28;20920;-50
2024/01/10 02:48:12;;;;;;;6.70;5.37;;;;;;;;;;5073171;28;21013;-49
2024/01/10 02:50:38;;;;;;;7.23;5.17;;;;;;;;;;5073116;28;20518;-50
2024/01/10 02:53:04;;;;;;;11.20;5.87;;;;;;;;;;5072931;28;20727;-49
2024/01/10 02:55:30;;;;;;;6.03;5.30;;;;;;;;;;5073173;28;20478;-50
2024/01/10 02:57:56;;;;;;;6.07;5.33;;;;;;;;;;5072811;28;20221;-49
2024/01/10 03:00:24;;;;;;;6.40;5.50;;;;;;;;;;5072889;28;20503;-49
2024/01/10 03:02:50;;;;;;;8.27;5.90;;;;;;;;;;5072691;28;20693;-50
2024/01/10 03:05:16;;;;;;;6.67;5.73;;;;;;;;;;5072926;28;20438;-49
2024/01/10 03:07:41;;;;;;;10.40;5.37;;;;;;;;;;5072765;28;20196;-49
2024/01/10 03:10:08;;;;;;;7.77;5.33;;;;;;;;;;5072368;28;20195;-49
2024/01/10 03:12:36;;;;;;;7.67;6.00;;;;;;;;;;5072590;28;20537;-50
2024/01/10 03:15:02;;;;;;;8.23;5.80;;;;;;;;;;5072492;28;20438;-49
2024/01/10 03:17:33;;;;;;;5.73;5.13;;;;;;;;;;5072481;28;20450;-50
2024/01/10 03:19:59;;;;;;;7.97;5.80;;;;;;;;;;5072515;28;20441;-50
2024/01/10 03:22:25;;;;;;;7.03;5.50;;;;;;;;;;5072582;28;20495;-50
2024/01/10 03:24:51;;;;;;;7.97;5.40;;;;;;;;;;5072337;28;20199;-50
2024/01/10 03:27:17;;;;;;;8.20;5.87;;;;;;;;;;5072263;28;20732;-50
2024/01/10 03:29:43;;;;;;;9.13;5.77;;;;;;;;;;5072367;28;20223;-50
2024/01/10 03:32:09;;;;;;;7.17;5.30;;;;;;;;;;5072023;28;20204;-49
2024/01/10 03:34:36;;;;;;;8.00;5.30;;;;;;;;;;5072192;28;20241;-49
2024/01/10 03:37:02;;;;;;;8.83;5.73;;;;;;;;;;5072095;28;20781;-50
2024/01/10 03:39:28;;;;;;;9.13;5.50;;;;;;;;;;5072275;28;20524;-50
2024/01/10 03:41:54;;;;;;;6.87;5.23;;;;;;;;;;5072059;28;20187;-49
2024/01/10 03:44:20;;;;;;;7.37;5.37;;;;;;;;;;5071974;28;20260;-50
2024/01/10 03:46:46;;;;;;;7.73;5.80;;;;;;;;;;5072096;28;20188;-50
2024/01/10 03:49:12;;;;;;;7.60;5.80;;;;;;;;;;5071940;28;20256;-50
2024/01/10 03:51:40;;;;;;;7.03;5.57;;;;;;;;;;5071952;28;20239;-50
2024/01/10 03:54:06;;;;;;;7.33;5.30;;;;;;;;;;5071827;28;20499;-50
2024/01/10 03:56:32;;;;;;;8.13;5.60;;;;;;;;;;5071944;28;20470;-50
2024/01/10 03:58:59;;;;;;;7.60;5.40;;;;;;;;;;5071951;28;20943;-49
2024/01/10 04:01:25;;;;;;;7.87;5.70;;;;;;;;;;5071800;28;20513;-49
2024/01/10 04:03:51;;;;;;;8.77;5.60;;;;;;;;;;5071786;28;20426;-49
2024/01/10 04:06:17;;;;;;;8.03;5.63;;;;;;;;;;5071773;28;20437;-49
2024/01/10 04:08:44;;;;;;;8.43;4.90;;;;;;;;;;5072127;28;20219;-50
2024/01/10 04:11:10;;;;;;;7.23;4.90;;;;;;;;;;5070966;28;20751;-49
2024/01/10 04:13:36;;;;;;;7.13;5.47;;;;;;;;;;5071799;28;20441;-50
2024/01/10 04:16:02;;;;;;;10.30;5.80;;;;;;;;;;5071593;28;20853;-50
2024/01/10 04:18:28;;;;;;;8.70;5.40;;;;;;;;;;5071588;28;20211;-49
2024/01/10 04:20:54;;;;;;;6.43;5.00;;;;;;;;;;5071617;28;20206;-51
2024/01/10 04:23:20;;;;;;;8.27;5.43;;;;;;;;;;5071486;28;20199;-49
2024/01/10 04:25:48;;;;;;;7.50;5.20;;;;;;;;;;5071524;28;21005;-49
2024/01/10 04:28:14;;;;;;;8.20;5.17;;;;;;;;;;5071495;28;20222;-49
2024/01/10 04:30:40;;;;;;;7.17;5.30;;;;;;;;;;5071415;28;20430;-49
2024/01/10 04:33:06;;;;;;;9.37;6.23;;;;;;;;;;5071365;28;20200;-50
2024/01/10 04:35:31;;;;;;;16.30;7.30;;;;;;;;;;5071617;28;20231;-49
2024/01/10 04:37:58;;;;;;;13.67;6.97;;;;;;;;;;5071442;28;20799;-51
2024/01/10 04:40:24;;;;;;;13.73;7.40;;;;;;;;;;5071493;28;20203;-49
2024/01/10 04:42:51;;;;;;;12.07;7.10;;;;;;;;;;5071336;28;20444;-49
2024/01/10 04:45:17;;;;;;;10.87;7.63;;;;;;;;;;5071312;28;20528;-49
2024/01/10 04:47:44;;;;;;;12.20;6.43;;;;;;;;;;5071532;28;20436;-50
2024/01/10 04:50:11;;;;;;;10.37;6.27;;;;;;;;;;5071256;28;20434;-49
2024/01/10 04:52:36;;;;;;;9.33;5.80;;;;;;;;;;5071408;28;20485;-50
2024/01/10 04:55:05;;;;;;;8.73;6.17;;;;;;;;;;5071159;28;20466;-49
2024/01/10 04:57:31;;;;;;;6.63;4.77;;;;;;;;;;5071285;28;20491;-49
2024/01/10 04:59:59;;;;;;;7.90;5.13;;;;;;;;;;5071115;28;20438;-49
2024/01/10 05:02:25;;;;;;;7.37;5.47;;;;;;;;;;5071204;28;20453;-50
2024/01/10 05:04:52;;;;;;;8.20;6.40;;;;;;;;;;5071082;28;20438;-49
2024/01/10 05:07:18;;;;;;;8.77;6.03;;;;;;;;;;5071136;28;20425;-49
2024/01/10 05:09:44;;;;;;;6.80;5.17;;;;;;;;;;5071254;28;20449;-49
2024/01/10 05:12:10;;;;;;;7.63;5.23;;;;;;;;;;5071123;28;20764;-49
2024/01/10 05:14:36;;;;;;;7.53;5.73;;;;;;;;;;5070876;28;20231;-49
2024/01/10 05:17:03;;;;;;;8.73;5.70;;;;;;;;;;5070886;28;20228;-49
2024/01/10 05:19:29;;;;;;;7.60;5.47;;;;;;;;;;5070977;28;20208;-49
2024/01/10 05:21:55;;;;;;;6.83;5.47;;;;;;;;;;5071463;28;20449;-49
2024/01/10 05:24:21;;;;;;;7.63;5.60;;;;;;;;;;5074747;28;20426;-48
2024/01/10 05:26:51;;;;;;;8.23;5.50;;;;;;;;;;5074653;28;20434;-49
2024/01/10 05:29:19;;;;;;;8.43;5.77;;;;;;;;;;5074441;28;20568;-49
2024/01/10 05:31:46;;;;;;;7.00;5.17;;;;;;;;;;5074654;28;20436;-49
2024/01/10 05:34:13;;;;;;;7.97;5.43;;;;;;;;;;5074516;28;20426;-49
2024/01/10 05:36:39;;;;;;;7.53;4.93;;;;;;;;;;5074414;28;20469;-49
2024/01/10 05:39:05;;;;;;;8.03;5.57;;;;;;;;;;5074308;28;20445;-49
2024/01/10 05:41:31;;;;;;;6.77;5.50;;;;;;;;;;5074629;28;20290;-49
2024/01/10 05:43:57;;;;;;;6.93;5.43;;;;;;;;;;5074363;28;20199;-49
2024/01/10 05:46:23;;;;;;;6.60;5.00;;;;;;;;;;5074088;28;20617;-49
2024/01/10 05:48:49;;;;;;;8.67;5.80;;;;;;;;;;5074051;28;20253;-49
2024/01/10 05:51:17;;;;;;;7.57;5.20;;;;;;;;;;5074191;28;20274;-49
2024/01/10 05:53:43;;;;;;;7.00;5.73;;;;;;;;;;5074308;28;20199;-49
2024/01/10 05:56:09;;;;;;;9.03;6.20;;;;;;;;;;5073864;28;20492;-49
2024/01/10 05:58:35;;;;;;;7.47;5.23;;;;;;;;;;5074098;28;20279;-50
2024/01/10 06:01:01;;;;;;;7.73;5.67;;;;;;;;;;5073965;28;20484;-49
2024/01/10 06:03:27;;;;;;;7.30;5.93;;;;;;;;;;5074061;28;20442;-49
2024/01/10 06:05:53;;;;;;;9.70;6.40;;;;;;;;;;5073808;28;20444;-49
2024/01/10 06:08:22;;;;;;;7.47;5.70;;;;;;;;;;5073715;28;20199;-49
2024/01/10 06:10:48;;;;;;;7.27;5.03;;;;;;;;;;5073693;28;20485;-50
2024/01/10 06:13:14;;;;;;;6.73;5.50;;;;;;;;;;5073768;28;20438;-49
2024/01/10 06:15:41;;;;;;;10.53;6.03;;;;;;;;;;5073938;28;20700;-49
2024/01/10 06:18:07;;;;;;;7.37;5.27;;;;;;;;;;5073351;28;20223;-52
2024/01/10 06:20:35;;;;;;;9.13;6.13;;;;;;;;;;5073792;28;20446;-51
2024/01/10 06:23:01;;;;;;;6.60;5.37;;;;;;;;;;5073330;28;20207;-51
2024/01/10 06:25:28;;;;;;;8.40;6.40;;;;;;;;;;5073488;28;20430;-51
2024/01/10 06:27:54;;;;;;;9.60;5.93;;;;;;;;;;5073439;28;20442;-49
2024/01/10 06:30:20;;;;;;;6.17;5.53;;;;;;;;;;5073277;28;20441;-51
2024/01/10 06:32:46;;;;;;;7.60;5.80;;;;;;;;;;5073084;28;20926;-49
2024/01/10 06:35:12;;;;;;;7.80;5.33;;;;;;;;;;5073263;28;20426;-49
2024/01/10 06:37:38;;;;;;;10.00;6.43;;;;;;;;;;5073184;28;20262;-49
2024/01/10 06:40:05;;;;;;;7.30;5.40;;;;;;;;;;5072908;28;20440;-49
2024/01/10 06:42:33;;;;;;;9.00;5.73;;;;;;;;;;5073179;28;20859;-52
2024/01/10 06:44:59;;;;;;;8.50;5.80;;;;;;;;;;5073160;28;20512;-49
2024/01/10 06:47:25;;;;;;;7.00;5.80;;;;;;;;;;5072963;28;20928;-49
2024/01/10 06:49:51;;;;;;;8.63;5.93;;;;;;;;;;5072892;28;20226;-49
2024/01/10 06:52:17;;;;;;;7.80;5.57;;;;;;;;;;5072663;28;20199;-49
2024/01/10 06:54:43;;;;;;;9.13;5.93;;;;;;;;;;5072933;28;20673;-49
2024/01/10 06:57:09;;;;;;;13.27;7.00;;;;;;;;;;5072759;28;20499;-49
2024/01/10 06:59:36;;;;;;;8.33;6.33;;;;;;;;;;5072849;28;21102;-49
2024/01/10 07:02:02;;;;;;;9.60;6.43;;;;;;;;;;5072832;28;20203;-49
2024/01/10 07:04:28;;;;;;;9.07;5.97;;;;;;;;;;5072734;28;20438;-49
2024/01/10 07:06:54;;;;;;;8.50;6.50;;;;;;;;;;5072507;28;20440;-50
2024/01/10 07:09:20;;;;;;;8.83;6.20;;;;;;;;;;5072519;28;20516;-49
2024/01/10 07:11:47;;;;;;;8.17;6.23;;;;;;;;;;5072429;28;20231;-49
2024/01/10 07:14:13;;;;;;;11.80;6.83;;;;;;;;;;5072505;28;20203;-49
2024/01/10 07:16:42;;;;;;;8.23;6.80;;;;;;;;;;5072428;28;20485;-51
2024/01/10 07:19:08;;;;;;;9.23;6.37;;;;;;;;;;5072103;28;20461;-50
2024/01/10 07:21:34;;;;;;;8.97;6.13;;;;;;;;;;5072439;28;20474;-48
2024/01/10 07:24:00;;;;;;;8.73;5.90;;;;;;;;;;5072464;28;20472;-47
2024/01/10 07:26:27;;;;;;;9.73;6.50;;;;;;;;;;5072018;28;20208;-49
2024/01/10 07:28:53;;;;;;;8.70;5.60;;;;;;;;;;5071808;28;20196;-48
2024/01/10 07:31:19;;;;;;;8.57;6.23;;;;;;;;;;5071537;28;20450;-48
2024/01/10 07:33:46;;;;;;;10.37;6.80;;;;;;;;;;5071537;28;20733;-48
2024/01/10 07:36:12;;;;;;;11.93;6.80;;;;;;;;;;5071873;28;20276;-47
2024/01/10 07:38:38;;;;;;;9.43;5.83;;;;;;;;;;5071923;28;20429;-48
2024/01/10 07:41:04;;;;;;;8.83;6.67;;;;;;;;;;5071908;28;20814;-48
2024/01/10 07:43:30;;;;;;;10.17;7.00;;;;;;;;;;5071813;28;20215;-48
2024/01/10 07:45:56;;;;;;;8.97;6.40;;;;;;;;;;5070901;28;20441;-48
2024/01/10 07:48:22;;;;;;;9.93;7.03;;;;;;;;;;5071664;28;20677;-48
2024/01/10 07:50:49;;;;;;;10.40;6.90;;;;;;;;;;5072085;28;20426;-48
2024/01/10 07:53:15;;;;;;;9.17;6.67;;;;;;;;;;5071966;28;20441;-48
2024/01/10 07:55:41;;;;;;;9.73;6.13;;;;;;;;;;5072054;28;20470;-49
2024/01/10 07:58:08;;;;;;;10.37;7.00;;;;;;;;;;5071756;28;20593;-49
2024/01/10 08:00:35;;;;;;;12.23;7.10;;;;;;;;;;5071671;28;20203;-50
2024/01/10 08:03:01;;;;;;;9.73;6.93;;;;;;;;;;5071949;28;21023;-48
2024/01/10 08:05:27;;;;;;;10.93;7.03;;;;;;;;;;5071653;28;20513;-47
2024/01/10 08:07:55;;;;;;;10.43;6.60;;;;;;;;;;5071840;28;20191;-49
2024/01/10 08:10:21;;;;;;;10.13;6.47;;;;;;;;;;5071342;28;20528;-49
2024/01/10 08:12:47;;;;;;;13.37;7.20;;;;;;;;;;5071623;28;20433;-51
2024/01/10 08:15:14;;;;;;;11.20;6.80;;;;;;;;;;5071514;28;20654;-51
2024/01/10 08:17:40;;;;;;;12.23;7.20;;;;;;;;;;5071288;28;20560;-50
2024/01/10 08:20:08;;;;;;;8.70;6.37;;;;;;;;;;5071606;28;20525;-50
2024/01/10 08:22:34;;;;;;;9.83;6.90;;;;;;;;;;5071485;28;20219;-50
2024/01/10 08:25:02;;;;;;;10.00;7.20;;;;;;;;;;5071742;28;20980;-50
2024/01/10 08:27:28;;;;;;;11.03;7.40;;;;;;;;;;5071504;28;20271;-50
2024/01/10 08:29:54;;;;;;;11.17;6.63;;;;;;;;;;5071464;28;20480;-50
2024/01/10 08:32:21;;;;;;;11.60;6.93;;;;;;;;;;5071388;28;20438;-50
2024/01/10 08:34:48;;;;;;;11.30;9.30;;;;;;;;;;5071589;28;20200;-51
2024/01/10 08:37:17;;;;;;;11.83;9.20;;;;;;;;;;5071509;28;20492;-49
2024/01/10 08:39:43;;;;;;;9.70;7.43;;;;;;;;;;5071501;28;20430;-50
2024/01/10 08:42:10;;;;;;;11.37;7.53;;;;;;;;;;5071399;28;20503;-49
2024/01/10 08:44:36;;;;;;;11.90;7.83;;;;;;;;;;5064809;28;20294;-51
2024/01/10 08:47:02;;;;;;;10.93;7.87;;;;;;;;;;5069555;28;20458;-50
2024/01/10 08:49:28;;;;;;;10.80;7.50;;;;;;;;;;5068578;28;20546;-49
2024/01/10 08:51:54;;;;;;;11.70;8.00;;;;;;;;;;5070973;28;21003;-48
2024/01/10 08:54:22;;;;;;;11.40;8.27;;;;;;;;;;5070999;28;20199;-49
2024/01/10 08:56:48;;;;;;;12.83;8.20;;;;;;;;;;5072852;28;20723;-50
2024/01/10 08:59:15;;;;;;;12.83;8.37;;;;;;;;;;5075091;28;20445;-48
2024/01/10 09:01:41;;;;;;;10.77;7.33;;;;;;;;;;5074689;28;20441;-50
2024/01/10 09:04:08;;;;;;;9.87;7.00;;;;;;;;;;5074742;28;20525;-50
2024/01/10 09:06:35;;;;;;;12.20;8.37;;;;;;;;;;5074604;28;20422;-49
2024/01/10 09:09:02;;;;;;;11.97;8.17;;;;;;;;;;5074890;28;20426;-49
2024/01/10 09:11:28;;;;;;;13.70;7.67;;;;;;;;;;5074607;28;20606;-50
2024/01/10 09:13:54;;;;;;;11.40;7.83;;;;;;;;;;5074519;28;20485;-51
2024/01/10 09:16:21;;;;;;;11.30;8.03;;;;;;;;;;5074346;28;20234;-50
2024/01/10 09:18:49;;;;;;;11.73;8.73;;;;;;;;;;5074547;28;20191;-50
2024/01/10 09:21:15;;;;;;;11.00;8.03;;;;;;;;;;5074870;28;20948;-50
2024/01/10 09:23:41;;;;;;;11.77;8.63;;;;;;;;;;5074507;28;20191;-50
2024/01/10 09:26:08;;;;;;;13.87;8.80;;;;;;;;;;5074583;28;20924;-50
2024/01/10 09:28:34;;;;;;;12.13;8.83;;;;;;;;;;5074334;28;20217;-50
2024/01/10 09:31:00;;;;;;;11.50;8.17;;;;;;;;;;5074544;28;20184;-50
2024/01/10 09:33:27;;;;;;;12.33;8.30;;;;;;;;;;5073944;28;20199;-50
2024/01/10 09:35:53;;;;;;;11.97;9.23;;;;;;;;;;5074139;28;20235;-50
2024/01/10 09:38:19;;;;;;;12.57;9.20;;;;;;;;;;5074021;28;20558;-50
2024/01/10 09:40:45;;;;;;;13.63;9.37;;;;;;;;;;5072944;28;20199;-50
2024/01/10 09:43:11;;;;;;;12.63;9.37;;;;;;;;;;5074150;28;20519;-50
2024/01/10 09:45:46;;;;;;;12.27;9.10;;;;;;;;;;5073999;28;20653;-50
2024/01/10 09:48:13;;;;;;;13.03;9.30;;;;;;;;;;5074024;28;20183;-50
2024/01/10 09:50:41;;;;;;;14.70;9.70;;;;;;;;;;5074166;28;20215;-50
2024/01/10 09:53:07;;;;;;;13.77;10.13;;;;;;;;;;5074045;28;20226;-50
2024/01/10 09:55:35;;;;;;;12.50;9.80;;;;;;;;;;5073931;28;20249;-50
2024/01/10 09:58:03;;;;;;;12.07;9.53;;;;;;;;;;5073790;28;20297;-49
2024/01/10 10:00:29;;;;;;;14.90;9.87;;;;;;;;;;5074066;28;20278;-49
2024/01/10 10:02:57;;;;;;;14.50;9.97;;;;;;;;;;5073722;28;20299;-50
2024/01/10 10:05:23;;;;;;;14.00;9.93;;;;;;;;;;5073228;28;20199;-49
2024/01/10 10:07:51;;;;;;;12.87;9.40;;;;;;;;;;5072658;28;20224;-49
2024/01/10 10:10:17;;;;;;;15.00;9.90;;;;;;;;;;5073546;28;20200;-49
2024/01/10 10:12:44;;;;;;;12.07;9.43;;;;;;;;;;5073698;28;20202;-49
2024/01/10 10:15:11;;;;;;;14.80;10.00;;;;;;;;;;5073570;28;20198;-49
2024/01/10 10:17:44;;;;;;;13.83;9.80;;;;;;;;;;5073084;28;20237;-48
2024/01/10 10:20:11;;;;;;;12.90;10.23;;;;;;;;;;5073576;28;20603;-49
2024/01/10 10:22:37;;;;;;;13.73;9.57;;;;;;;;;;5073345;28;20207;-50
2024/01/10 10:25:05;;;;;;;12.37;9.83;;;;;;;;;;5073408;28;20282;-49
2024/01/10 10:27:32;;;;;;;14.87;9.90;;;;;;;;;;5073169;28;20658;-49
2024/01/10 10:29:58;;;;;;;15.07;10.17;;;;;;;;;;5073232;28;20195;-49
2024/01/10 10:32:24;;;;;;;13.80;10.13;;;;;;;;;;5073010;28;20192;-50
2024/01/10 10:34:50;;;;;;;17.53;11.23;;;;;;;;;;5073254;28;20196;-49
2024/01/10 10:37:16;;;;;;;15.00;10.90;;;;;;;;;;5073194;28;20223;-49
2024/01/10 10:39:42;;;;;;;14.90;10.27;;;;;;;;;;5070397;28;20203;-49
2024/01/10 10:42:09;;;;;;;13.80;9.90;;;;;;;;;;5071197;28;20202;-49
2024/01/10 10:44:36;;;;;;;14.30;9.20;;;;;;;;;;5069378;28;20211;-50
2024/01/10 10:47:05;;;;;;;13.87;9.80;;;;;;;;;;5073053;28;20780;-49
2024/01/10 10:49:32;;;;;;;13.70;10.13;;;;;;;;;;5072777;28;20234;-50
2024/01/10 10:51:58;;;;;;;13.90;9.93;;;;;;;;;;5073156;28;20199;-50
2024/01/10 10:54:26;;;;;;;12.73;9.13;;;;;;;;;;5073209;28;20586;-50
2024/01/10 10:56:52;;;;;;;12.20;9.60;;;;;;;;;;5072654;28;20306;-51
2024/01/10 10:59:20;;;;;;;13.30;9.70;;;;;;;;;;5072977;28;20199;-50
2024/01/10 11:01:47;;;;;;;11.93;9.10;;;;;;;;;;5072934;28;20212;-51
2024/01/10 11:04:13;;;;;;;12.13;9.43;;;;;;;;;;5073173;28;20278;-51
2024/01/10 11:06:40;;;;;;;13.63;9.50;;;;;;;;;;5072558;28;20257;-50
2024/01/10 11:09:11;;;;;;;14.10;8.93;;;;;;;;;;5072693;28;20195;-51
2024/01/10 11:11:46;;;;;;;12.33;8.53;;;;;;;;;;5072556;28;20306;-51
2024/01/10 11:14:19;;;;;;;13.47;9.30;;;;;;;;;;5072627;28;20202;-51
2024/01/10 11:16:53;;;;;;;12.17;8.80;;;;;;;;;;5072734;28;20220;-49
2024/01/10 11:19:40;;;;;;;11.33;8.93;;;;;;;;;;5072556;28;20568;-50
2024/01/10 11:22:14;;;;;;;14.43;9.80;;;;;;;;;;5067509;28;20245;-50
2024/01/10 11:24:40;;;;;;;13.77;9.53;;;;;;;;;;5072702;28;20199;-50
2024/01/10 11:27:08;;;;;;;13.87;9.43;;;;;;;;;;5070551;28;20497;-51
2024/01/10 11:29:34;;;;;;;12.70;8.77;;;;;;;;;;5071957;28;20203;-49
2024/01/10 11:32:01;;;;;;;14.20;9.43;;;;;;;;;;5072298;28;20196;-49
2024/01/10 11:34:27;;;;;;;15.20;9.87;;;;;;;;;;5072068;28;20203;-49
2024/01/10 11:37:12;;;;;;;13.87;10.07;;;;;;;;;;5072247;28;20237;-50
2024/01/10 11:39:40;;;;;;;13.33;9.63;;;;;;;;;;5071873;28;20665;-49
2024/01/10 11:42:09;;;;;;;12.73;9.70;;;;;;;;;;5072004;28;20231;-49
2024/01/10 11:44:36;;;;;;;12.63;9.57;;;;;;;;;;5071705;28;20207;-50
2024/01/10 11:47:05;;;;;;;11.67;9.03;;;;;;;;;;5071855;28;20221;-49
2024/01/10 11:49:31;;;;;;;11.30;8.53;;;;;;;;;;5071905;28;20205;-49
2024/01/10 11:51:57;;;;;;;12.93;9.20;;;;;;;;;;5071965;28;20284;-49
2024/01/10 11:54:36;;;;;;;12.20;8.83;;;;;;;;;;5071915;28;20238;-49
2024/01/10 11:57:02;;;;;;;12.63;8.90;;;;;;;;;;5072203;28;20227;-49
2024/01/10 11:59:30;;;;;;;10.93;8.97;;;;;;;;;;5072136;28;20195;-49
2024/01/10 12:01:56;;;;;;;11.90;8.67;;;;;;;;;;5072626;28;20205;-49
2024/01/10 12:04:23;;;;;;;11.70;8.87;;;;;;;;;;5072113;28;20201;-49
2024/01/10 12:06:49;;;;;;;12.43;8.43;;;;;;;;;;5072024;28;20286;-50
2024/01/10 12:09:16;;;;;;;11.33;8.40;;;;;;;;;;5072094;28;20689;-50
2024/01/10 12:11:42;;;;;;;12.03;8.97;;;;;;;;;;5071500;28;20314;-49
2024/01/10 12:14:08;;;;;;;13.63;9.20;;;;;;;;;;5072089;28;20196;-48
2024/01/10 12:16:35;;;;;;;11.93;8.83;;;;;;;;;;5071654;28;20232;-48
2024/01/10 12:19:01;;;;;;;12.40;8.63;;;;;;;;;;5072378;28;20199;-49
2024/01/10 12:21:28;;;;;;;10.90;8.70;;;;;;;;;;5071858;28;20199;-48
2024/01/10 12:23:57;;;;;;;12.03;8.73;;;;;;;;;;5071851;28;20208;-50
2024/01/10 12:26:23;;;;;;;10.37;8.07;;;;;;;;;;5072091;28;20188;-50
2024/01/10 12:28:54;;;;;;;13.13;8.63;;;;;;;;;;5071317;28;20206;-49
2024/01/10 12:31:22;;;;;;;11.10;9.03;;;;;;;;;;5071363;28;20204;-49
2024/01/10 12:33:48;;;;;;;12.40;8.93;;;;;;;;;;5071638;28;20207;-50
2024/01/10 12:36:14;;;;;;;10.20;8.70;;;;;;;;;;5071558;28;20292;-49
2024/01/10 12:38:42;;;;;;;11.27;8.67;;;;;;;;;;5071345;28;20264;-49
2024/01/10 12:41:09;;;;;;;12.10;8.43;;;;;;;;;;5071659;28;20286;-50
2024/01/10 12:43:35;;;;;;;11.13;7.97;;;;;;;;;;5071578;28;20203;-49
2024/01/10 12:46:05;;;;;;;11.50;8.67;;;;;;;;;;5071621;28;20222;-48
2024/01/10 12:48:31;;;;;;;12.00;9.30;;;;;;;;;;5071782;28;20199;-48
2024/01/10 12:50:57;;;;;;;14.03;8.40;;;;;;;;;;5071399;28;20257;-47
2024/01/10 12:53:23;;;;;;;12.97;8.90;;;;;;;;;;5071770;28;20207;-49
2024/01/10 12:55:50;;;;;;;11.17;8.33;;;;;;;;;;5071363;28;20202;-48
2024/01/10 12:58:16;;;;;;;9.90;7.80;;;;;;;;;;5071625;28;20203;-48
2024/01/10 13:00:42;;;;;;;10.73;7.47;;;;;;;;;;5071732;28;20207;-47
2024/01/10 13:03:10;;;;;;;11.57;8.07;;;;;;;;;;5071604;28;20199;-48
2024/01/10 13:05:37;;;;;;;12.87;8.30;;;;;;;;;;5071411;28;20278;-47
2024/01/10 13:08:05;;;;;;;11.83;8.20;;;;;;;;;;5071373;28;20195;-47
2024/01/10 13:10:31;;;;;;;10.40;7.83;;;;;;;;;;5071532;28;20235;-47
2024/01/10 13:12:58;;;;;;;13.23;8.30;;;;;;;;;;5071482;28;20727;-47
2024/01/10 13:15:24;;;;;;;10.03;7.73;;;;;;;;;;5071453;28;20215;-48
2024/01/10 13:17:50;;;;;;;14.53;9.27;;;;;;;;;;5071054;28;20227;-48
2024/01/10 13:20:16;;;;;;;11.97;7.77;;;;;;;;;;5071492;28;20235;-48
2024/01/10 13:22:43;;;;;;;11.30;7.73;;;;;;;;;;5071456;28;20222;-48
2024/01/10 13:25:09;;;;;;;11.07;7.57;;;;;;;;;;5071449;28;20237;-48
2024/01/10 13:27:35;;;;;;;12.00;8.33;;;;;;;;;;5071078;28;20442;-48
2024/01/10 13:30:04;;;;;;;11.57;8.03;;;;;;;;;;5071392;28;20279;-48
2024/01/10 13:32:30;;;;;;;12.17;8.20;;;;;;;;;;5071497;28;20207;-48
2024/01/10 13:34:56;;;;;;;11.87;8.13;;;;;;;;;;5071061;28;20245;-48
2024/01/10 13:37:23;;;;;;;13.27;8.00;;;;;;;;;;5070940;28;20234;-48
2024/01/10 13:39:49;;;;;;;11.53;8.03;;;;;;;;;;5071177;28;20928;-48
2024/01/10 13:42:15;;;;;;;12.40;8.10;;;;;;;;;;5071016;28;20446;-48
2024/01/10 13:44:41;;;;;;;11.87;7.97;;;;;;;;;;5074139;28;20440;-48
2024/01/10 13:47:08;;;;;;;13.63;8.47;;;;;;;;;;5074575;28;20249;-48
2024/01/10 13:49:34;;;;;;;12.10;8.13;;;;;;;;;;5074523;28;20191;-48
2024/01/10 13:52:00;;;;;;;11.50;7.57;;;;;;;;;;5074523;28;20838;-48
2024/01/10 13:54:26;;;;;;;14.63;8.73;;;;;;;;;;5074307;28;20200;-48
2024/01/10 13:56:52;;;;;;;11.17;8.03;;;;;;;;;;5074195;28;20223;-48
2024/01/10 13:59:18;;;;;;;10.47;7.83;;;;;;;;;;5074266;28;20658;-47
2024/01/10 14:01:44;;;;;;;11.30;7.87;;;;;;;;;;5074210;28;20199;-48
2024/01/10 14:04:11;;;;;;;17.60;10.90;;;;;;;;;;5074338;28;20200;-48
2024/01/10 14:06:37;;;;;;;11.37;9.37;;;;;;;;;;5074138;28;20270;-48
2024/01/10 14:09:03;;;;;;;13.70;11.33;;;;;;;;;;5074002;28;20533;-48
2024/01/10 14:11:29;;;;;;;13.13;10.07;;;;;;;;;;5073976;28;20239;-47
2024/01/10 14:13:55;;;;;;;12.13;9.27;;;;;;;;;;5073806;28;20261;-47
2024/01/10 14:16:21;;;;;;;20.30;15.70;;;;;;;;;;5074699;28;20579;-48
2024/01/10 14:18:48;;;;;;;13.80;9.20;;;;;;;;;;5075265;28;20204;-47
2024/01/10 14:21:15;;;;;;;12.33;8.73;;;;;;;;;;5073969;28;20267;-47
2024/01/10 14:23:41;;;;;;;17.80;13.73;;;;;;;;;;5073637;28;20465;-47
2024/01/10 14:26:07;;;;;;;21.07;14.70;;;;;;;;;;5073850;28;20437;-47
2024/01/10 14:28:33;;;;;;;16.87;13.80;;;;;;;;;;5073738;28;20654;-47
2024/01/10 14:31:00;;;;;;;36.70;26.90;;;;;;;;;;5073798;28;20209;-47
2024/01/10 14:33:26;;;;;;;11.50;8.60;;;;;;;;;;5073657;28;20213;-47